sensor_id;sensor_type;location;lat;lon;timestamp;pressure;altitude;pressure_sealevel;temperature;humidity
23318;BME280;11831;55.918;37.746;2023-08-06T00:01:50;99652.59;;;26.07;0.00
23318;BME280;11831;55.918;37.746;2023-08-06T00:04:16;99653.72;;;25.97;0.00
23318;BME280;11831;55.918;37.746;2023-08-06T00:06:43;99645.84;;;26.04;0.00
23318;BME280;11831;55.918;37.746;2023-08-06T00:09:09;99643.25;;;25.90;0.00
23318;BME280;11831;55.918;37.746;2023-08-06T00:11:35;99647.25;;;26.02;0.00
23318;BME280;11831;55.918;37.746;2023-08-06T00:14:02;99657.75;;;26.08;0.00
23318;BME280;11831;55.918;37.746;2023-08-06T00:16:28;99653.06;;;26.09;0.00
23318;BME280;11831;55.918;37.746;2023-08-06T00:18:55;99651.78;;;25.97;0.00
23318;BME280;11831;55.918;37.746;2023-08-06T00:21:21;99641.97;;;25.88;0.00
23318;BME280;11831;55.918;37.746;2023-08-06T00:23:48;99645.16;;;25.98;0.00
23318;BME280;11831;55.918;37.746;2023-08-06T00:26:14;99643.09;;;25.95;0.00
23318;BME280;11831;55.918;37.746;2023-08-06T00:28:40;99644.88;;;25.83;0.00
23318;BME280;11831;55.918;37.746;2023-08-06T00:31:07;99642.50;;;25.73;0.00
23318;BME280;11831;55.918;37.746;2023-08-06T00:33:33;99644.75;;;25.79;0.00
23318;BME280;11831;55.918;37.746;2023-08-06T00:36:00;99648.13;;;25.76;0.00
23318;BME280;11831;55.918;37.746;2023-08-06T00:38:26;99650.87;;;25.76;0.00
23318;BME280;11831;55.918;37.746;2023-08-06T00:40:53;99649.25;;;25.75;0.00
23318;BME280;11831;55.918;37.746;2023-08-06T00:43:19;99652.75;;;25.58;0.00
23318;BME280;11831;55.918;37.746;2023-08-06T00:45:46;99649.25;;;25.66;0.00
23318;BME280;11831;55.918;37.746;2023-08-06T00:48:12;99653.41;;;25.64;0.00
23318;BME280;11831;55.918;37.746;2023-08-06T00:50:39;99655.38;;;25.72;0.00
23318;BME280;11831;55.918;37.746;2023-08-06T00:53:06;99651.78;;;25.63;0.00
23318;BME280;11831;55.918;37.746;2023-08-06T00:55:33;99656.00;;;25.69;0.00
23318;BME280;11831;55.918;37.746;2023-08-06T00:58:00;99649.56;;;25.48;0.00
23318;BME280;11831;55.918;37.746;2023-08-06T01:00:27;99658.72;;;25.60;0.00
23318;BME280;11831;55.918;37.746;2023-08-06T01:02:53;99667.88;;;25.64;0.00
23318;BME280;11831;55.918;37.746;2023-08-06T01:05:21;99659.34;;;25.66;0.00
23318;BME280;11831;55.918;37.746;2023-08-06T01:15:46;99654.38;;;25.42;0.00
23318;BME280;11831;55.918;37.746;2023-08-06T01:18:13;99656.31;;;25.42;0.00
23318;BME280;11831;55.918;37.746;2023-08-06T01:20:40;99656.63;;;25.49;0.00
23318;BME280;11831;55.918;37.746;2023-08-06T01:23:06;99656.13;;;25.38;0.00
23318;BME280;11831;55.918;37.746;2023-08-06T01:26:09;99653.53;;;25.33;0.00
23318;BME280;11831;55.918;37.746;2023-08-06T01:28:44;99655.63;;;25.36;0.00
23318;BME280;11831;55.918;37.746;2023-08-06T01:31:23;99656.59;;;25.40;0.00
23318;BME280;11831;55.918;37.746;2023-08-06T01:33:51;99659.66;;;25.38;0.00
23318;BME280;11831;55.918;37.746;2023-08-06T01:36:19;99662.88;;;25.41;0.00
23318;BME280;11831;55.918;37.746;2023-08-06T01:38:46;99665.63;;;25.32;0.00
23318;BME280;11831;55.918;37.746;2023-08-06T01:41:17;99670.78;;;25.33;0.00
23318;BME280;11831;55.918;37.746;2023-08-06T01:43:43;99667.72;;;25.26;0.00
23318;BME280;11831;55.918;37.746;2023-08-06T01:46:10;99670.78;;;25.25;0.00
23318;BME280;11831;55.918;37.746;2023-08-06T01:48:36;99679.78;;;25.25;0.00
23318;BME280;11831;55.918;37.746;2023-08-06T01:51:06;99680.28;;;25.36;0.00
23318;BME280;11831;55.918;37.746;2023-08-06T01:53:33;99680.75;;;25.29;0.00
23318;BME280;11831;55.918;37.746;2023-08-06T01:56:00;99678.34;;;25.28;0.00
23318;BME280;11831;55.918;37.746;2023-08-06T01:58:26;99682.19;;;25.18;0.00
23318;BME280;11831;55.918;37.746;2023-08-06T02:00:52;99682.19;;;25.27;0.00
23318;BME280;11831;55.918;37.746;2023-08-06T02:03:19;99683.00;;;25.36;0.00
23318;BME280;11831;55.918;37.746;2023-08-06T02:05:45;99691.84;;;25.24;0.00
23318;BME280;11831;55.918;37.746;2023-08-06T02:08:11;99698.28;;;25.28;0.00
23318;BME280;11831;55.918;37.746;2023-08-06T02:10:38;99696.84;;;25.31;0.00
23318;BME280;11831;55.918;37.746;2023-08-06T02:13:04;99700.22;;;25.19;0.00
23318;BME280;11831;55.918;37.746;2023-08-06T02:15:31;99702.47;;;25.34;0.00
23318;BME280;11831;55.918;37.746;2023-08-06T02:17:58;99703.75;;;25.28;0.00
23318;BME280;11831;55.918;37.746;2023-08-06T02:20:55;99704.44;;;25.43;0.00
23318;BME280;11831;55.918;37.746;2023-08-06T02:23:22;99697.00;;;25.34;0.00
23318;BME280;11831;55.918;37.746;2023-08-06T02:25:57;99689.16;;;25.50;0.00
23318;BME280;11831;55.918;37.746;2023-08-06T02:28:24;99692.69;;;25.42;0.00
23318;BME280;11831;55.918;37.746;2023-08-06T02:30:51;99693.94;;;25.36;0.00
23318;BME280;11831;55.918;37.746;2023-08-06T02:33:17;99691.41;;;25.48;0.00
23318;BME280;11831;55.918;37.746;2023-08-06T02:35:44;99695.59;;;25.54;0.00
23318;BME280;11831;55.918;37.746;2023-08-06T02:38:10;99695.91;;;25.44;0.00
23318;BME280;11831;55.918;37.746;2023-08-06T02:40:43;99699.78;;;25.43;0.00
23318;BME280;11831;55.918;37.746;2023-08-06T02:43:10;99698.66;;;25.61;0.00
23318;BME280;11831;55.918;37.746;2023-08-06T02:45:37;99695.66;;;25.72;0.00
23318;BME280;11831;55.918;37.746;2023-08-06T02:48:04;99702.41;;;25.74;0.00
23318;BME280;11831;55.918;37.746;2023-08-06T02:50:30;99689.03;;;25.81;0.00
23318;BME280;11831;55.918;37.746;2023-08-06T02:52:56;99697.72;;;25.83;0.00
23318;BME280;11831;55.918;37.746;2023-08-06T02:55:23;99695.00;;;25.83;0.00
23318;BME280;11831;55.918;37.746;2023-08-06T02:57:49;99693.69;;;25.89;0.00
23318;BME280;11831;55.918;37.746;2023-08-06T03:00:15;99691.75;;;25.90;0.00
23318;BME280;11831;55.918;37.746;2023-08-06T03:02:42;99696.09;;;25.99;0.00
23318;BME280;11831;55.918;37.746;2023-08-06T03:05:08;99701.41;;;25.96;0.00
23318;BME280;11831;55.918;37.746;2023-08-06T03:07:35;99694.50;;;26.07;0.00
23318;BME280;11831;55.918;37.746;2023-08-06T03:10:03;99703.00;;;26.14;0.00
23318;BME280;11831;55.918;37.746;2023-08-06T03:12:30;99696.25;;;26.12;0.00
23318;BME280;11831;55.918;37.746;2023-08-06T03:14:56;99692.56;;;26.08;0.00
23318;BME280;11831;55.918;37.746;2023-08-06T03:17:22;99699.50;;;26.05;0.00
23318;BME280;11831;55.918;37.746;2023-08-06T03:19:49;99699.00;;;25.94;0.00
23318;BME280;11831;55.918;37.746;2023-08-06T03:22:15;99697.38;;;25.93;0.00
23318;BME280;11831;55.918;37.746;2023-08-06T03:24:41;99690.78;;;26.03;0.00
23318;BME280;11831;55.918;37.746;2023-08-06T03:27:08;99702.72;;;26.07;0.00
23318;BME280;11831;55.918;37.746;2023-08-06T03:29:34;99697.34;;;26.19;0.00
23318;BME280;11831;55.918;37.746;2023-08-06T03:32:01;99696.59;;;25.93;0.00
23318;BME280;11831;55.918;37.746;2023-08-06T03:34:27;99691.22;;;26.22;0.00
23318;BME280;11831;55.918;37.746;2023-08-06T03:36:54;99694.78;;;26.14;0.00
23318;BME280;11831;55.918;37.746;2023-08-06T03:39:20;99693.94;;;26.48;0.00
23318;BME280;11831;55.918;37.746;2023-08-06T03:41:46;99689.25;;;26.49;0.00
23318;BME280;11831;55.918;37.746;2023-08-06T03:44:13;99698.31;;;26.23;0.00
23318;BME280;11831;55.918;37.746;2023-08-06T03:46:39;99694.28;;;26.38;0.00
23318;BME280;11831;55.918;37.746;2023-08-06T03:49:06;99690.25;;;26.44;0.00
23318;BME280;11831;55.918;37.746;2023-08-06T03:51:32;99702.25;;;26.69;0.00
23318;BME280;11831;55.918;37.746;2023-08-06T03:53:59;99695.22;;;26.51;0.00
23318;BME280;11831;55.918;37.746;2023-08-06T03:56:25;99692.03;;;26.40;0.00
23318;BME280;11831;55.918;37.746;2023-08-06T03:58:51;99696.06;;;26.43;0.00
23318;BME280;11831;55.918;37.746;2023-08-06T04:01:18;99691.62;;;26.59;0.00
23318;BME280;11831;55.918;37.746;2023-08-06T04:03:45;99690.16;;;26.61;0.00
23318;BME280;11831;55.918;37.746;2023-08-06T04:06:11;99684.72;;;26.53;0.00
23318;BME280;11831;55.918;37.746;2023-08-06T04:08:37;99689.59;;;26.85;0.00
23318;BME280;11831;55.918;37.746;2023-08-06T04:11:04;99687.47;;;26.91;0.00
23318;BME280;11831;55.918;37.746;2023-08-06T04:13:30;99684.88;;;26.95;0.00
23318;BME280;11831;55.918;37.746;2023-08-06T04:16:01;99676.00;;;26.98;0.00
23318;BME280;11831;55.918;37.746;2023-08-06T04:18:28;99688.44;;;26.95;0.00
23318;BME280;11831;55.918;37.746;2023-08-06T04:20:54;99689.06;;;27.01;0.00
23318;BME280;11831;55.918;37.746;2023-08-06T04:23:23;99683.13;;;26.99;0.00
23318;BME280;11831;55.918;37.746;2023-08-06T04:25:50;99689.06;;;27.30;0.00
23318;BME280;11831;55.918;37.746;2023-08-06T04:28:17;99681.41;;;27.15;0.00
23318;BME280;11831;55.918;37.746;2023-08-06T04:30:44;99691.09;;;27.12;0.00
23318;BME280;11831;55.918;37.746;2023-08-06T04:33:10;99697.13;;;27.06;0.00
23318;BME280;11831;55.918;37.746;2023-08-06T04:35:37;99688.13;;;27.26;0.00
23318;BME280;11831;55.918;37.746;2023-08-06T04:38:03;99688.53;;;27.58;0.00
23318;BME280;11831;55.918;37.746;2023-08-06T04:40:29;99683.38;;;27.56;0.00
23318;BME280;11831;55.918;37.746;2023-08-06T04:42:56;99693.75;;;27.00;0.00
23318;BME280;11831;55.918;37.746;2023-08-06T04:45:22;99681.69;;;27.43;0.00
23318;BME280;11831;55.918;37.746;2023-08-06T04:47:50;99681.56;;;27.81;0.00
23318;BME280;11831;55.918;37.746;2023-08-06T04:50:16;99688.66;;;28.03;0.00
23318;BME280;11831;55.918;37.746;2023-08-06T04:52:43;99685.09;;;28.02;0.00
23318;BME280;11831;55.918;37.746;2023-08-06T04:55:10;99676.97;;;28.27;0.00
23318;BME280;11831;55.918;37.746;2023-08-06T04:57:36;99688.19;;;28.34;0.00
23318;BME280;11831;55.918;37.746;2023-08-06T05:00:03;99686.03;;;28.39;0.00
23318;BME280;11831;55.918;37.746;2023-08-06T05:02:31;99684.34;;;28.14;0.00
23318;BME280;11831;55.918;37.746;2023-08-06T05:04:58;99677.47;;;28.65;0.00
23318;BME280;11831;55.918;37.746;2023-08-06T05:07:24;99681.50;;;28.68;0.00
23318;BME280;11831;55.918;37.746;2023-08-06T05:09:51;99679.03;;;28.87;0.00
23318;BME280;11831;55.918;37.746;2023-08-06T05:12:17;99682.91;;;28.86;0.00
23318;BME280;11831;55.918;37.746;2023-08-06T05:14:44;99682.78;;;29.07;0.00
23318;BME280;11831;55.918;37.746;2023-08-06T05:17:10;99675.91;;;29.13;0.00
23318;BME280;11831;55.918;37.746;2023-08-06T05:19:36;99678.34;;;28.90;0.00
23318;BME280;11831;55.918;37.746;2023-08-06T05:22:03;99675.31;;;29.08;0.00
23318;BME280;11831;55.918;37.746;2023-08-06T05:24:29;99669.12;;;28.74;0.00
23318;BME280;11831;55.918;37.746;2023-08-06T05:26:56;99672.81;;;29.02;0.00
23318;BME280;11831;55.918;37.746;2023-08-06T05:29:22;99667.72;;;29.41;0.00
23318;BME280;11831;55.918;37.746;2023-08-06T05:31:48;99663.97;;;29.21;0.00
23318;BME280;11831;55.918;37.746;2023-08-06T05:34:15;99662.22;;;29.41;0.00
23318;BME280;11831;55.918;37.746;2023-08-06T05:36:41;99660.97;;;29.26;0.00
23318;BME280;11831;55.918;37.746;2023-08-06T05:39:08;99659.63;;;29.08;0.00
23318;BME280;11831;55.918;37.746;2023-08-06T05:41:34;99666.56;;;29.54;0.00
23318;BME280;11831;55.918;37.746;2023-08-06T05:44:00;99662.31;;;29.57;0.00
23318;BME280;11831;55.918;37.746;2023-08-06T05:46:26;99662.59;;;29.67;0.00
23318;BME280;11831;55.918;37.746;2023-08-06T05:48:53;99662.50;;;29.64;0.00
23318;BME280;11831;55.918;37.746;2023-08-06T05:51:19;99663.53;;;29.72;0.00
23318;BME280;11831;55.918;37.746;2023-08-06T05:53:46;99665.44;;;29.83;0.00
23318;BME280;11831;55.918;37.746;2023-08-06T05:56:13;99661.53;;;30.00;0.00
23318;BME280;11831;55.918;37.746;2023-08-06T05:58:39;99664.38;;;30.16;0.00
23318;BME280;11831;55.918;37.746;2023-08-06T06:01:06;99660.03;;;30.31;0.00
23318;BME280;11831;55.918;37.746;2023-08-06T06:03:32;99659.06;;;30.39;0.00
23318;BME280;11831;55.918;37.746;2023-08-06T06:06:00;99660.75;;;30.43;0.00
23318;BME280;11831;55.918;37.746;2023-08-06T06:08:27;99664.47;;;30.63;0.00
23318;BME280;11831;55.918;37.746;2023-08-06T06:10:53;99654.91;;;30.61;0.00
23318;BME280;11831;55.918;37.746;2023-08-06T06:13:20;99651.91;;;30.66;0.00
23318;BME280;11831;55.918;37.746;2023-08-06T06:15:46;99656.06;;;30.44;0.00
23318;BME280;11831;55.918;37.746;2023-08-06T06:18:13;99657.03;;;30.36;0.00
23318;BME280;11831;55.918;37.746;2023-08-06T06:20:39;99652.63;;;30.63;0.00
23318;BME280;11831;55.918;37.746;2023-08-06T06:23:05;99655.38;;;30.63;0.00
23318;BME280;11831;55.918;37.746;2023-08-06T06:25:32;99656.19;;;30.63;0.00
23318;BME280;11831;55.918;37.746;2023-08-06T06:27:58;99663.38;;;30.68;0.00
23318;BME280;11831;55.918;37.746;2023-08-06T06:30:25;99656.75;;;30.41;0.00
23318;BME280;11831;55.918;37.746;2023-08-06T06:32:51;99652.94;;;30.77;0.00
23318;BME280;11831;55.918;37.746;2023-08-06T06:35:18;99649.69;;;31.06;0.00
23318;BME280;11831;55.918;37.746;2023-08-06T06:37:44;99655.75;;;31.28;0.00
23318;BME280;11831;55.918;37.746;2023-08-06T06:40:11;99658.94;;;30.63;0.00
23318;BME280;11831;55.918;37.746;2023-08-06T06:42:37;99660.91;;;31.13;0.00
23318;BME280;11831;55.918;37.746;2023-08-06T06:45:05;99645.78;;;31.42;0.00
23318;BME280;11831;55.918;37.746;2023-08-06T06:47:31;99650.22;;;31.47;0.00
23318;BME280;11831;55.918;37.746;2023-08-06T06:49:58;99655.31;;;31.64;0.00
23318;BME280;11831;55.918;37.746;2023-08-06T06:52:24;99652.56;;;31.64;0.00
23318;BME280;11831;55.918;37.746;2023-08-06T06:54:50;99646.59;;;31.62;0.00
23318;BME280;11831;55.918;37.746;2023-08-06T06:57:16;99638.72;;;31.45;0.00
23318;BME280;11831;55.918;37.746;2023-08-06T06:59:43;99642.66;;;31.44;0.00
23318;BME280;11831;55.918;37.746;2023-08-06T07:02:09;99647.94;;;31.88;0.00
23318;BME280;11831;55.918;37.746;2023-08-06T07:04:35;99643.28;;;31.92;0.00
23318;BME280;11831;55.918;37.746;2023-08-06T07:07:01;99645.50;;;31.67;0.00
23318;BME280;11831;55.918;37.746;2023-08-06T07:09:28;99638.75;;;31.64;0.00
23318;BME280;11831;55.918;37.746;2023-08-06T07:11:54;99643.41;;;31.60;0.00
23318;BME280;11831;55.918;37.746;2023-08-06T07:14:21;99636.78;;;31.65;0.00
23318;BME280;11831;55.918;37.746;2023-08-06T07:16:47;99639.84;;;31.60;0.00
23318;BME280;11831;55.918;37.746;2023-08-06T07:19:13;99636.16;;;31.71;0.00
23318;BME280;11831;55.918;37.746;2023-08-06T07:21:39;99629.56;;;31.99;0.00
23318;BME280;11831;55.918;37.746;2023-08-06T07:24:06;99631.00;;;32.12;0.00
23318;BME280;11831;55.918;37.746;2023-08-06T07:26:32;99631.88;;;32.16;0.00
23318;BME280;11831;55.918;37.746;2023-08-06T07:28:58;99625.88;;;32.14;0.00
23318;BME280;11831;55.918;37.746;2023-08-06T07:31:25;99633.69;;;32.08;0.00
23318;BME280;11831;55.918;37.746;2023-08-06T07:33:51;99627.66;;;32.03;0.00
23318;BME280;11831;55.918;37.746;2023-08-06T07:36:18;99637.69;;;32.11;0.00
23318;BME280;11831;55.918;37.746;2023-08-06T07:38:44;99630.78;;;32.43;0.00
23318;BME280;11831;55.918;37.746;2023-08-06T07:41:10;99624.69;;;32.57;0.00
23318;BME280;11831;55.918;37.746;2023-08-06T07:43:37;99626.13;;;32.74;0.00
23318;BME280;11831;55.918;37.746;2023-08-06T07:46:03;99617.19;;;32.58;0.00
23318;BME280;11831;55.918;37.746;2023-08-06T07:48:30;99625.06;;;32.79;0.00
23318;BME280;11831;55.918;37.746;2023-08-06T07:50:57;99621.22;;;32.87;0.00
23318;BME280;11831;55.918;37.746;2023-08-06T07:53:24;99618.00;;;32.81;0.00
23318;BME280;11831;55.918;37.746;2023-08-06T07:55:53;99627.28;;;32.96;0.00
23318;BME280;11831;55.918;37.746;2023-08-06T07:58:20;99617.09;;;33.03;0.00
23318;BME280;11831;55.918;37.746;2023-08-06T08:00:47;99612.66;;;32.95;0.00
23318;BME280;11831;55.918;37.746;2023-08-06T08:03:15;99615.41;;;32.95;0.00
23318;BME280;11831;55.918;37.746;2023-08-06T08:05:42;99623.59;;;32.62;0.00
23318;BME280;11831;55.918;37.746;2023-08-06T08:08:08;99622.13;;;32.94;0.00
23318;BME280;11831;55.918;37.746;2023-08-06T08:10:35;99608.75;;;33.00;0.00
23318;BME280;11831;55.918;37.746;2023-08-06T08:13:02;99612.28;;;32.97;0.00
23318;BME280;11831;55.918;37.746;2023-08-06T08:15:29;99606.75;;;32.74;0.00
23318;BME280;11831;55.918;37.746;2023-08-06T08:17:56;99615.62;;;33.10;0.00
23318;BME280;11831;55.918;37.746;2023-08-06T08:20:23;99599.53;;;33.49;0.00
23318;BME280;11831;55.918;37.746;2023-08-06T08:22:49;99599.16;;;33.50;0.00
23318;BME280;11831;55.918;37.746;2023-08-06T08:25:16;99593.88;;;33.38;0.00
23318;BME280;11831;55.918;37.746;2023-08-06T08:27:42;99602.00;;;33.57;0.00
23318;BME280;11831;55.918;37.746;2023-08-06T08:30:09;99603.94;;;32.70;0.00
23318;BME280;11831;55.918;37.746;2023-08-06T08:32:35;99606.16;;;33.11;0.00
23318;BME280;11831;55.918;37.746;2023-08-06T08:35:02;99604.16;;;33.38;0.00
23318;BME280;11831;55.918;37.746;2023-08-06T08:37:29;99602.03;;;33.61;0.00
23318;BME280;11831;55.918;37.746;2023-08-06T08:39:56;99600.25;;;33.42;0.00
23318;BME280;11831;55.918;37.746;2023-08-06T08:42:22;99590.59;;;33.66;0.00
23318;BME280;11831;55.918;37.746;2023-08-06T08:44:49;99587.88;;;33.06;0.00
23318;BME280;11831;55.918;37.746;2023-08-06T08:47:16;99587.38;;;33.60;0.00
23318;BME280;11831;55.918;37.746;2023-08-06T08:49:42;99592.72;;;33.13;0.00
23318;BME280;11831;55.918;37.746;2023-08-06T08:52:10;99582.84;;;33.42;0.00
23318;BME280;11831;55.918;37.746;2023-08-06T08:54:39;99588.34;;;33.38;0.00
23318;BME280;11831;55.918;37.746;2023-08-06T08:57:06;99586.25;;;33.65;0.00
23318;BME280;11831;55.918;37.746;2023-08-06T08:59:33;99591.34;;;33.59;0.00
23318;BME280;11831;55.918;37.746;2023-08-06T09:02:02;99587.22;;;33.80;0.00
23318;BME280;11831;55.918;37.746;2023-08-06T09:04:30;99579.69;;;33.80;0.00
23318;BME280;11831;55.918;37.746;2023-08-06T09:07:02;99576.41;;;33.68;0.00
23318;BME280;11831;55.918;37.746;2023-08-06T09:09:31;99578.88;;;33.43;0.00
23318;BME280;11831;55.918;37.746;2023-08-06T09:12:06;99571.81;;;33.49;0.00
23318;BME280;11831;55.918;37.746;2023-08-06T09:14:34;99571.22;;;33.66;0.00
23318;BME280;11831;55.918;37.746;2023-08-06T09:17:01;99579.53;;;33.66;0.00
23318;BME280;11831;55.918;37.746;2023-08-06T09:19:27;99577.00;;;33.87;0.00
23318;BME280;11831;55.918;37.746;2023-08-06T09:21:55;99584.38;;;34.10;0.00
23318;BME280;11831;55.918;37.746;2023-08-06T09:24:21;99575.06;;;33.54;0.00
23318;BME280;11831;55.918;37.746;2023-08-06T09:26:48;99576.44;;;34.08;0.00
23318;BME280;11831;55.918;37.746;2023-08-06T09:29:14;99579.28;;;34.19;0.00
23318;BME280;11831;55.918;37.746;2023-08-06T09:34:17;99576.13;;;33.80;0.00
23318;BME280;11831;55.918;37.746;2023-08-06T09:36:50;99569.09;;;34.30;0.00
23318;BME280;11831;55.918;37.746;2023-08-06T09:39:21;99558.66;;;33.76;0.00
23318;BME280;11831;55.918;37.746;2023-08-06T09:41:48;99564.31;;;33.86;0.00
23318;BME280;11831;55.918;37.746;2023-08-06T09:44:22;99568.94;;;34.12;0.00
23318;BME280;11831;55.918;37.746;2023-08-06T09:46:59;99561.69;;;34.41;0.00
23318;BME280;11831;55.918;37.746;2023-08-06T09:49:44;99562.84;;;34.37;0.00
23318;BME280;11831;55.918;37.746;2023-08-06T09:52:14;99553.97;;;34.24;0.00
23318;BME280;11831;55.918;37.746;2023-08-06T09:54:42;99554.78;;;34.28;0.00
23318;BME280;11831;55.918;37.746;2023-08-06T09:57:11;99552.50;;;34.34;0.00
23318;BME280;11831;55.918;37.746;2023-08-06T09:59:38;99558.56;;;34.50;0.00
23318;BME280;11831;55.918;37.746;2023-08-06T10:02:12;99550.75;;;34.18;0.00
23318;BME280;11831;55.918;37.746;2023-08-06T10:04:42;99547.75;;;34.34;0.00
23318;BME280;11831;55.918;37.746;2023-08-06T10:07:10;99539.66;;;34.66;0.00
23318;BME280;11831;55.918;37.746;2023-08-06T10:09:36;99539.69;;;34.73;0.00
23318;BME280;11831;55.918;37.746;2023-08-06T10:12:03;99537.06;;;34.95;0.00
23318;BME280;11831;55.918;37.746;2023-08-06T10:14:33;99535.66;;;34.64;0.00
23318;BME280;11831;55.918;37.746;2023-08-06T10:17:01;99525.53;;;34.93;0.00
23318;BME280;11831;55.918;37.746;2023-08-06T10:19:29;99532.75;;;34.46;0.00
23318;BME280;11831;55.918;37.746;2023-08-06T10:22:09;99525.56;;;34.38;0.00
23318;BME280;11831;55.918;37.746;2023-08-06T10:24:58;99523.03;;;34.73;0.00
23318;BME280;11831;55.918;37.746;2023-08-06T10:27:32;99521.19;;;34.92;0.00
23318;BME280;11831;55.918;37.746;2023-08-06T10:30:27;99518.94;;;35.33;0.00
23318;BME280;11831;55.918;37.746;2023-08-06T10:32:56;99501.78;;;35.06;0.00
23318;BME280;11831;55.918;37.746;2023-08-06T10:35:42;99512.75;;;34.81;0.00
23318;BME280;11831;55.918;37.746;2023-08-06T10:38:17;99499.75;;;34.96;0.00
23318;BME280;11831;55.918;37.746;2023-08-06T10:41:01;99517.16;;;34.89;0.00
23318;BME280;11831;55.918;37.746;2023-08-06T10:43:37;99511.34;;;35.15;0.00
23318;BME280;11831;55.918;37.746;2023-08-06T10:46:11;99508.16;;;35.17;0.00
23318;BME280;11831;55.918;37.746;2023-08-06T10:48:40;99506.75;;;35.76;0.00
23318;BME280;11831;55.918;37.746;2023-08-06T10:51:11;99517.06;;;35.58;0.00
23318;BME280;11831;55.918;37.746;2023-08-06T10:53:41;99493.22;;;35.71;0.00
23318;BME280;11831;55.918;37.746;2023-08-06T10:56:23;99497.97;;;35.50;0.00
23318;BME280;11831;55.918;37.746;2023-08-06T10:58:53;99500.00;;;35.63;0.00
23318;BME280;11831;55.918;37.746;2023-08-06T11:01:21;99498.00;;;35.82;0.00
23318;BME280;11831;55.918;37.746;2023-08-06T11:03:49;99498.41;;;35.73;0.00
23318;BME280;11831;55.918;37.746;2023-08-06T11:06:22;99503.22;;;36.04;0.00
23318;BME280;11831;55.918;37.746;2023-08-06T11:08:53;99488.50;;;36.47;0.00
23318;BME280;11831;55.918;37.746;2023-08-06T11:11:20;99499.56;;;36.75;0.00
23318;BME280;11831;55.918;37.746;2023-08-06T11:13:48;99498.81;;;36.53;0.00
23318;BME280;11831;55.918;37.746;2023-08-06T11:16:19;99494.44;;;36.52;0.00
23318;BME280;11831;55.918;37.746;2023-08-06T11:18:46;99492.31;;;37.06;0.00
23318;BME280;11831;55.918;37.746;2023-08-06T11:21:13;99494.09;;;37.48;0.00
23318;BME280;11831;55.918;37.746;2023-08-06T11:23:40;99496.84;;;38.52;0.00
23318;BME280;11831;55.918;37.746;2023-08-06T11:26:07;99483.69;;;39.51;0.00
23318;BME280;11831;55.918;37.746;2023-08-06T11:28:34;99478.47;;;40.03;0.00
23318;BME280;11831;55.918;37.746;2023-08-06T11:31:00;99483.63;;;40.91;0.00
23318;BME280;11831;55.918;37.746;2023-08-06T11:33:28;99485.81;;;41.04;0.00
23318;BME280;11831;55.918;37.746;2023-08-06T11:35:56;99476.88;;;41.09;0.00
23318;BME280;11831;55.918;37.746;2023-08-06T11:38:30;99481.75;;;41.77;0.00
23318;BME280;11831;55.918;37.746;2023-08-06T11:40:56;99483.00;;;42.54;0.00
23318;BME280;11831;55.918;37.746;2023-08-06T11:43:23;99462.88;;;42.26;0.00
23318;BME280;11831;55.918;37.746;2023-08-06T11:45:49;99476.91;;;43.38;0.00
23318;BME280;11831;55.918;37.746;2023-08-06T11:48:16;99474.84;;;44.37;0.00
23318;BME280;11831;55.918;37.746;2023-08-06T11:50:44;99474.34;;;43.31;0.00
23318;BME280;11831;55.918;37.746;2023-08-06T11:53:13;99474.38;;;43.02;0.00
23318;BME280;11831;55.918;37.746;2023-08-06T11:55:40;99474.87;;;43.90;0.00
23318;BME280;11831;55.918;37.746;2023-08-06T11:58:07;99462.13;;;43.98;0.00
23318;BME280;11831;55.918;37.746;2023-08-06T12:00:33;99450.38;;;44.91;0.00
23318;BME280;11831;55.918;37.746;2023-08-06T12:02:59;99459.72;;;45.09;0.00
23318;BME280;11831;55.918;37.746;2023-08-06T12:05:30;99450.38;;;45.62;0.00
23318;BME280;11831;55.918;37.746;2023-08-06T12:07:58;99457.19;;;44.80;0.00
23318;BME280;11831;55.918;37.746;2023-08-06T12:10:26;99454.59;;;46.06;0.00
23318;BME280;11831;55.918;37.746;2023-08-06T12:12:53;99453.63;;;45.42;0.00
23318;BME280;11831;55.918;37.746;2023-08-06T12:15:20;99451.63;;;44.89;0.00
23318;BME280;11831;55.918;37.746;2023-08-06T12:17:46;99436.16;;;45.65;0.00
23318;BME280;11831;55.918;37.746;2023-08-06T12:20:13;99435.63;;;47.13;0.00
23318;BME280;11831;55.918;37.746;2023-08-06T12:22:39;99447.34;;;46.51;0.00
23318;BME280;11831;55.918;37.746;2023-08-06T12:25:08;99441.88;;;46.57;0.00
23318;BME280;11831;55.918;37.746;2023-08-06T12:27:36;99434.47;;;47.29;0.00
23318;BME280;11831;55.918;37.746;2023-08-06T12:30:03;99435.28;;;48.01;0.00
23318;BME280;11831;55.918;37.746;2023-08-06T12:32:31;99444.06;;;46.34;0.00
23318;BME280;11831;55.918;37.746;2023-08-06T12:34:58;99445.72;;;45.28;0.00
23318;BME280;11831;55.918;37.746;2023-08-06T12:37:25;99437.09;;;45.00;0.00
23318;BME280;11831;55.918;37.746;2023-08-06T12:39:51;99439.34;;;44.62;0.00
23318;BME280;11831;55.918;37.746;2023-08-06T12:42:18;99434.75;;;44.11;0.00
23318;BME280;11831;55.918;37.746;2023-08-06T12:44:44;99436.16;;;43.81;0.00
23318;BME280;11831;55.918;37.746;2023-08-06T12:47:11;99422.41;;;45.36;0.00
23318;BME280;11831;55.918;37.746;2023-08-06T12:49:37;99416.75;;;46.40;0.00
23318;BME280;11831;55.918;37.746;2023-08-06T12:52:04;99429.94;;;47.55;0.00
23318;BME280;11831;55.918;37.746;2023-08-06T12:54:32;99418.31;;;46.32;0.00
23318;BME280;11831;55.918;37.746;2023-08-06T12:57:05;99420.31;;;45.28;0.00
23318;BME280;11831;55.918;37.746;2023-08-06T12:59:32;99422.22;;;47.56;0.00
23318;BME280;11831;55.918;37.746;2023-08-06T13:02:06;99414.69;;;47.11;0.00
23318;BME280;11831;55.918;37.746;2023-08-06T13:04:32;99420.78;;;45.75;0.00
23318;BME280;11831;55.918;37.746;2023-08-06T13:07:00;99421.69;;;46.91;0.00
23318;BME280;11831;55.918;37.746;2023-08-06T13:09:26;99415.66;;;48.36;0.00
23318;BME280;11831;55.918;37.746;2023-08-06T13:11:53;99417.41;;;47.95;0.00
23318;BME280;11831;55.918;37.746;2023-08-06T13:14:20;99408.25;;;45.76;0.00